Time;durP1;ratioP1;P1;durP2;ratioP2;P2;SDS_P1;SDS_P2;PMS_P1;PMS_P2;Temp;Humidity;BMP_temperature;BMP_pressure;BME280_temperature;BME280_humidity;BME280_pressure;Samples;Min_cycle;Max_cycle;Signal;HPM_P1;HPM_P2
2022/10/11 00:01:32;;;;;;;3.25;3.00;;;14.30;99.90;;;;;;4935902;28;20774;-71
2022/10/11 00:03:59;;;;;;;3.38;3.08;;;14.30;99.90;;;;;;4956945;28;20214;-71
2022/10/11 00:06:27;;;;;;;3.20;2.95;;;14.30;99.90;;;;;;4936726;28;20222;-71
2022/10/11 00:08:54;;;;;;;4.28;3.00;;;14.30;99.90;;;;;;4952194;28;20859;-71
2022/10/11 00:11:21;;;;;;;3.63;3.33;;;14.20;99.90;;;;;;4951038;28;20225;-71
2022/10/11 00:13:50;;;;;;;3.30;3.10;;;14.20;99.90;;;;;;4952845;28;20199;-71
2022/10/11 00:16:17;;;;;;;3.47;3.17;;;14.10;99.90;;;;;;4959494;28;20220;-72
2022/10/11 00:18:44;;;;;;;3.58;3.15;;;14.10;99.90;;;;;;4958680;28;20207;-71
2022/10/11 00:21:13;;;;;;;3.42;3.13;;;14.00;99.90;;;;;;4951183;28;20718;-70
2022/10/11 00:23:42;;;;;;;4.18;3.20;;;14.00;99.90;;;;;;4950498;28;20198;-70
2022/10/11 00:26:11;;;;;;;3.80;3.50;;;14.00;99.90;;;;;;4965857;28;20236;-70
2022/10/11 00:28:39;;;;;;;3.90;3.40;;;14.00;99.90;;;;;;4970201;28;20248;-70
2022/10/11 00:31:10;;;;;;;3.22;3.00;;;14.00;99.90;;;;;;4958867;28;20601;-70
2022/10/11 00:33:38;;;;;;;3.45;3.15;;;14.00;99.90;;;;;;4955179;28;20206;-70
2022/10/11 00:36:05;;;;;;;3.25;3.03;;;14.00;99.90;;;;;;4971878;28;20225;-70
2022/10/11 00:38:33;;;;;;;3.47;3.17;;;14.00;99.90;;;;;;4973052;28;20571;-70
2022/10/11 00:41:01;;;;;;;3.58;3.28;;;14.00;99.90;;;;;;4958205;28;20307;-71
2022/10/11 00:43:30;;;;;;;3.83;3.53;;;14.00;99.90;;;;;;4971180;28;20206;-71
2022/10/11 00:46:05;;;;;;;3.40;3.10;;;14.00;99.90;;;;;;4967947;28;20232;-71
2022/10/11 00:48:39;;;;;;;4.53;3.38;;;14.00;99.90;;;;;;4970702;28;20213;-71
2022/10/11 00:51:16;;;;;;;4.00;3.60;;;14.00;99.90;;;;;;4968361;28;20230;-70
2022/10/11 00:53:44;;;;;;;3.90;3.58;;;13.90;99.90;;;;;;4956896;28;20603;-70
2022/10/11 00:56:17;;;;;;;3.40;3.20;;;13.90;99.90;;;;;;4967700;28;20233;-71
2022/10/11 00:58:44;;;;;;;3.60;3.30;;;13.90;99.90;;;;;;4957186;28;20193;-71
2022/10/11 01:01:12;;;;;;;3.25;3.05;;;13.90;99.90;;;;;;4968773;28;20288;-71
2022/10/11 01:03:41;;;;;;;3.70;3.40;;;13.90;99.90;;;;;;4970496;28;20194;-72
2022/10/11 01:06:09;;;;;;;3.50;3.20;;;13.90;99.90;;;;;;4969694;28;20252;-71
2022/10/11 01:08:38;;;;;;;2.90;2.70;;;13.90;99.90;;;;;;4970058;28;20280;-71
2022/10/11 01:11:05;;;;;;;3.45;3.00;;;13.90;99.90;;;;;;4969302;28;20761;-71
2022/10/11 01:13:47;;;;;;;3.80;3.17;;;13.80;99.90;;;;;;4972053;28;20198;-71
2022/10/11 01:16:20;;;;;;;3.97;3.30;;;13.80;99.90;;;;;;4967335;28;20257;-71
2022/10/11 01:18:59;;;;;;;3.80;3.40;;;13.70;99.90;;;;;;4968523;28;20194;-71
2022/10/11 01:21:38;;;;;;;3.60;3.30;;;13.70;99.90;;;;;;4953897;28;20629;-71
2022/10/11 01:24:30;;;;;;;3.85;3.55;;;13.60;99.90;;;;;;4970702;28;20197;-71
2022/10/11 01:27:24;;;;;;;3.95;3.65;;;13.60;99.90;;;;;;4970891;28;20232;-71
2022/10/11 01:30:03;;;;;;;3.65;3.35;;;13.60;99.90;;;;;;4969188;28;20221;-71
2022/10/11 01:32:38;;;;;;;4.00;3.35;;;13.60;99.90;;;;;;4972422;28;20198;-71
2022/10/11 01:35:13;;;;;;;3.72;3.42;;;13.60;99.90;;;;;;4968722;28;20710;-71
2022/10/11 01:37:43;;;;;;;3.72;3.42;;;13.50;99.90;;;;;;4969401;28;20197;-71
2022/10/11 01:40:15;;;;;;;4.13;3.72;;;13.50;99.90;;;;;;4967430;28;20233;-71
2022/10/11 01:42:44;;;;;;;3.70;3.47;;;13.40;99.90;;;;;;4971167;28;20212;-71
2022/10/11 01:45:15;;;;;;;4.38;3.65;;;13.30;99.90;;;;;;4952105;28;20236;-71
2022/10/11 01:47:44;;;;;;;4.13;3.72;;;13.30;99.90;;;;;;4970618;28;20245;-71
2022/10/11 01:50:44;;;;;;;3.42;3.22;;;13.30;99.90;;;;;;4966614;28;20371;-71
2022/10/11 01:53:42;;;;;;;3.83;3.53;;;13.30;99.90;;;;;;4969286;28;20750;-71
2022/10/11 01:56:25;;;;;;;3.95;3.65;;;13.30;99.90;;;;;;4967956;28;20232;-71
2022/10/11 01:59:04;;;;;;;3.92;3.63;;;13.30;99.90;;;;;;4936109;28;20197;-71
2022/10/11 02:01:43;;;;;;;3.47;3.17;;;13.20;99.90;;;;;;4965210;28;20226;-71
2022/10/11 02:04:16;;;;;;;4.03;3.70;;;13.10;99.90;;;;;;4969419;28;20199;-71
2022/10/11 02:06:50;;;;;;;4.13;3.80;;;13.10;99.90;;;;;;4971014;28;20264;-71
2022/10/11 02:09:30;;;;;;;4.20;3.80;;;13.10;99.90;;;;;;4965814;28;20232;-71
2022/10/11 02:12:02;;;;;;;3.70;3.50;;;13.10;99.90;;;;;;4965318;28;20233;-71
2022/10/11 02:14:35;;;;;;;3.92;3.63;;;13.10;99.90;;;;;;4964409;28;20202;-72
2022/10/11 02:17:07;;;;;;;4.05;3.75;;;13.10;99.90;;;;;;4966712;28;20213;-71
2022/10/11 02:19:39;;;;;;;3.75;3.45;;;13.10;99.90;;;;;;4970406;28;20288;-71
2022/10/11 02:22:10;;;;;;;4.10;3.80;;;13.10;99.90;;;;;;4968960;28;20216;-71
2022/10/11 02:24:41;;;;;;;3.55;3.25;;;13.10;99.90;;;;;;4968955;28;20201;-71
2022/10/11 02:27:11;;;;;;;3.95;3.63;;;13.10;99.90;;;;;;4968464;28;20206;-71
2022/10/11 02:29:41;;;;;;;3.88;3.58;;;13.10;99.90;;;;;;4967744;28;20217;-71
2022/10/11 02:32:10;;;;;;;3.75;3.45;;;13.10;99.90;;;;;;4969725;28;20204;-71
2022/10/11 02:34:45;;;;;;;4.32;3.53;;;13.10;99.90;;;;;;4970377;28;20592;-71
2022/10/11 02:37:17;;;;;;;3.78;3.47;;;13.10;99.90;;;;;;4970577;28;20296;-71
2022/10/11 02:39:48;;;;;;;4.43;3.92;;;13.10;99.90;;;;;;4953443;28;20237;-71
2022/10/11 02:42:19;;;;;;;4.22;3.83;;;13.10;99.90;;;;;;4970779;28;20228;-71
2022/10/11 02:44:58;;;;;;;4.10;3.67;;;13.10;99.90;;;;;;4968292;28;20221;-71
2022/10/11 02:47:26;;;;;;;3.60;3.30;;;13.00;99.90;;;;;;4970396;28;20197;-70
2022/10/11 02:49:55;;;;;;;3.85;3.55;;;13.00;99.90;;;;;;4972546;28;20984;-71
2022/10/11 02:52:22;;;;;;;3.85;3.22;;;13.00;99.90;;;;;;4969446;28;20204;-70
2022/10/11 02:54:49;;;;;;;3.30;3.10;;;13.00;99.90;;;;;;4970109;28;20251;-71
2022/10/11 02:57:17;;;;;;;3.30;3.00;;;13.10;99.90;;;;;;4967380;28;20196;-71
2022/10/11 02:59:44;;;;;;;3.88;3.58;;;13.00;99.90;;;;;;4970799;28;20244;-71
2022/10/11 03:02:12;;;;;;;3.38;3.08;;;13.00;99.90;;;;;;4969584;28;20547;-70
2022/10/11 03:04:39;;;;;;;3.42;3.22;;;13.00;99.90;;;;;;4970414;28;20201;-71
2022/10/11 03:07:08;;;;;;;4.05;3.50;;;13.00;99.90;;;;;;4965369;28;20205;-70
2022/10/11 03:09:35;;;;;;;3.63;3.40;;;13.00;99.90;;;;;;4969765;28;20711;-71
2022/10/11 03:12:02;;;;;;;3.85;3.55;;;12.90;99.90;;;;;;4955920;28;20205;-71
2022/10/11 03:14:29;;;;;;;3.67;3.35;;;12.90;99.90;;;;;;4968314;28;20698;-73
2022/10/11 03:16:57;;;;;;;3.63;3.10;;;12.90;99.90;;;;;;4956093;28;20729;-71
2022/10/11 03:19:24;;;;;;;3.53;3.33;;;13.00;99.90;;;;;;4968827;28;20222;-72
2022/10/11 03:21:52;;;;;;;3.70;3.40;;;13.00;99.90;;;;;;4971211;28;20205;-71
2022/10/11 03:24:21;;;;;;;3.42;3.13;;;13.00;99.90;;;;;;4979896;28;20210;-72
2022/10/11 03:26:50;;;;;;;3.53;3.22;;;13.00;99.90;;;;;;4970139;28;20230;-72
2022/10/11 03:29:17;;;;;;;3.30;3.10;;;13.00;99.90;;;;;;4950507;28;20308;-71
2022/10/11 03:31:45;;;;;;;3.90;3.60;;;13.00;99.90;;;;;;4972544;28;20244;-71
2022/10/11 03:34:12;;;;;;;4.30;4.00;;;13.00;99.90;;;;;;4957426;28;20209;-71
2022/10/11 03:36:39;;;;;;;4.13;3.83;;;12.90;99.90;;;;;;4976213;28;20568;-72
2022/10/11 03:39:07;;;;;;;4.47;4.07;;;12.90;99.90;;;;;;4975265;28;20217;-71
2022/10/11 03:41:36;;;;;;;3.97;3.65;;;12.80;99.90;;;;;;4975414;28;20248;-72
2022/10/11 03:44:04;;;;;;;3.90;3.60;;;12.70;99.90;;;;;;4974058;28;20197;-71
2022/10/11 03:46:31;;;;;;;5.88;3.95;;;12.70;99.90;;;;;;4970287;28;20217;-71
2022/10/11 03:48:59;;;;;;;4.13;3.83;;;12.70;99.90;;;;;;4973672;28;20206;-71
2022/10/11 03:51:26;;;;;;;3.95;3.65;;;12.70;99.90;;;;;;4970340;28;20225;-71
2022/10/11 03:53:53;;;;;;;4.40;4.00;;;12.70;99.90;;;;;;4972957;28;20226;-70
2022/10/11 03:56:20;;;;;;;4.18;3.85;;;12.70;99.90;;;;;;4955711;28;20263;-70
2022/10/11 03:58:49;;;;;;;4.00;3.70;;;12.60;99.90;;;;;;4974787;28;20205;-70
2022/10/11 04:01:16;;;;;;;4.45;4.05;;;12.60;99.90;;;;;;4968160;28;20224;-70
2022/10/11 04:03:43;;;;;;;3.80;3.50;;;12.50;99.90;;;;;;4953095;28;20276;-70
2022/10/11 04:06:11;;;;;;;4.13;3.83;;;12.50;99.90;;;;;;4972581;28;20240;-70
2022/10/11 04:08:41;;;;;;;3.80;3.55;;;12.50;99.90;;;;;;4974238;28;20217;-70
2022/10/11 04:11:08;;;;;;;3.65;3.35;;;12.50;99.90;;;;;;4970074;28;20217;-70
2022/10/11 04:13:36;;;;;;;4.00;3.70;;;12.50;99.90;;;;;;4973533;28;20216;-70
2022/10/11 04:16:06;;;;;;;4.22;3.92;;;12.50;99.90;;;;;;4971148;28;20713;-70
2022/10/11 04:18:33;;;;;;;5.22;4.13;;;12.50;99.90;;;;;;4972902;28;20857;-70
2022/10/11 04:21:00;;;;;;;4.43;4.03;;;12.50;99.90;;;;;;4957187;28;20232;-69
2022/10/11 04:23:27;;;;;;;4.28;3.95;;;12.50;99.90;;;;;;4971076;28;20209;-70
2022/10/11 04:25:54;;;;;;;4.07;3.70;;;12.50;99.90;;;;;;4970622;28;20221;-70
2022/10/11 04:28:21;;;;;;;4.90;3.78;;;12.50;99.90;;;;;;4970110;28;20210;-70
2022/10/11 04:30:49;;;;;;;3.85;3.55;;;12.50;99.90;;;;;;4964018;28;20221;-70
2022/10/11 04:33:19;;;;;;;4.32;3.92;;;12.40;99.90;;;;;;4955391;28;20608;-70
2022/10/11 04:35:47;;;;;;;3.97;3.67;;;12.50;99.90;;;;;;4972689;28;20221;-70
2022/10/11 04:38:14;;;;;;;3.70;3.40;;;12.40;99.90;;;;;;4955683;28;20205;-69
2022/10/11 04:40:41;;;;;;;7.05;4.10;;;12.40;99.90;;;;;;4967659;28;20225;-70
2022/10/11 04:43:08;;;;;;;5.03;3.90;;;12.40;99.90;;;;;;4976737;28;20225;-69
2022/10/11 04:45:36;;;;;;;3.72;3.42;;;12.40;99.90;;;;;;4981787;28;20229;-70
2022/10/11 04:48:03;;;;;;;4.53;4.13;;;12.40;99.90;;;;;;4972873;28;20686;-70
2022/10/11 04:50:32;;;;;;;4.30;3.90;;;12.30;99.90;;;;;;4952450;28;20288;-70
2022/10/11 04:52:59;;;;;;;3.55;3.25;;;12.30;99.90;;;;;;4971741;28;20197;-69
2022/10/11 04:55:28;;;;;;;4.40;3.90;;;12.30;99.90;;;;;;4969388;28;20228;-69
2022/10/11 04:57:56;;;;;;;4.50;4.10;;;12.30;99.90;;;;;;4956954;28;20198;-70
2022/10/11 05:00:25;;;;;;;4.05;3.75;;;12.30;99.90;;;;;;4968840;28;20233;-69
2022/10/11 05:02:53;;;;;;;4.95;3.95;;;12.30;99.90;;;;;;4957228;28;20629;-69
2022/10/11 05:05:20;;;;;;;4.00;3.60;;;12.30;99.90;;;;;;4973599;28;20225;-70
2022/10/11 05:07:49;;;;;;;4.18;3.88;;;12.30;99.90;;;;;;4970281;28;20197;-70
2022/10/11 05:10:16;;;;;;;3.80;3.50;;;12.30;99.90;;;;;;4970050;28;20931;-70
2022/10/11 05:12:43;;;;;;;3.97;3.67;;;12.30;99.90;;;;;;4971172;28;20224;-70
2022/10/11 05:15:10;;;;;;;3.85;3.30;;;12.30;99.90;;;;;;4970257;28;20296;-69
2022/10/11 05:17:38;;;;;;;4.97;4.00;;;12.30;99.90;;;;;;4969626;28;20205;-69
2022/10/11 05:20:06;;;;;;;3.55;3.25;;;12.30;99.90;;;;;;4969531;28;20305;-69
2022/10/11 05:22:34;;;;;;;4.07;3.78;;;12.30;99.90;;;;;;4965606;28;20236;-69
2022/10/11 05:25:02;;;;;;;4.55;3.75;;;12.30;99.90;;;;;;4970593;28;20217;-70
2022/10/11 05:27:30;;;;;;;4.07;3.72;;;12.30;99.90;;;;;;4972928;28;20710;-70
2022/10/11 05:29:57;;;;;;;3.80;3.50;;;12.20;99.90;;;;;;4969212;28;20229;-70
2022/10/11 05:32:24;;;;;;;4.47;4.07;;;12.20;99.90;;;;;;4958038;28;20197;-70
2022/10/11 05:34:51;;;;;;;5.20;4.78;;;12.20;99.90;;;;;;4966899;28;20221;-71
2022/10/11 05:37:18;;;;;;;4.22;3.92;;;12.10;99.90;;;;;;4967664;28;20220;-70
2022/10/11 05:39:46;;;;;;;4.65;4.30;;;12.10;99.90;;;;;;4966907;28;20229;-70
2022/10/11 05:42:15;;;;;;;4.35;3.95;;;12.10;99.90;;;;;;4970103;28;20276;-70
2022/10/11 05:44:42;;;;;;;4.43;4.03;;;12.10;99.90;;;;;;4970789;28;20655;-70
2022/10/11 05:47:10;;;;;;;4.13;3.83;;;12.10;99.90;;;;;;4958309;28;20193;-69
2022/10/11 05:49:37;;;;;;;4.50;4.07;;;12.10;99.90;;;;;;4972809;28;20213;-71
2022/10/11 05:52:06;;;;;;;3.97;3.58;;;12.10;99.90;;;;;;4971730;28;20220;-70
2022/10/11 05:54:33;;;;;;;3.80;3.50;;;12.20;99.90;;;;;;4970753;28;20213;-70
2022/10/11 05:57:01;;;;;;;4.20;3.80;;;12.30;99.90;;;;;;4952589;28;20193;-69
2022/10/11 05:59:29;;;;;;;3.40;3.08;;;12.40;99.90;;;;;;4967795;28;20233;-69
2022/10/11 06:01:56;;;;;;;3.60;3.30;;;12.50;99.90;;;;;;4969085;28;20194;-70
2022/10/11 06:04:23;;;;;;;4.15;3.40;;;12.60;99.90;;;;;;4955444;28;20198;-71
2022/10/11 06:06:50;;;;;;;4.13;3.83;;;12.60;99.90;;;;;;4955775;28;20209;-70
2022/10/11 06:09:18;;;;;;;4.45;4.05;;;12.70;99.90;;;;;;4968109;28;20278;-70
2022/10/11 06:11:45;;;;;;;4.03;3.70;;;12.70;99.90;;;;;;4969003;28;20867;-70
2022/10/11 06:14:13;;;;;;;4.32;3.95;;;12.70;99.90;;;;;;4971593;28;20231;-71
2022/10/11 06:16:41;;;;;;;4.28;3.90;;;12.70;99.90;;;;;;4933894;28;20222;-71
2022/10/11 06:19:09;;;;;;;3.78;3.47;;;12.60;99.90;;;;;;4972114;28;20225;-70
2022/10/11 06:21:36;;;;;;;4.05;3.63;;;12.60;99.90;;;;;;4967420;28;20237;-70
2022/10/11 06:24:04;;;;;;;4.13;3.40;;;12.60;99.90;;;;;;4952849;28;20204;-71
2022/10/11 06:26:31;;;;;;;4.30;3.70;;;12.60;99.90;;;;;;4953367;28;20268;-70
2022/10/11 06:28:58;;;;;;;3.47;3.17;;;12.50;99.90;;;;;;4968357;28;20228;-71
2022/10/11 06:31:26;;;;;;;4.13;3.80;;;12.60;99.90;;;;;;4967214;28;20217;-70
2022/10/11 06:33:54;;;;;;;3.92;3.58;;;12.50;99.90;;;;;;4968830;28;20228;-70
2022/10/11 06:36:22;;;;;;;4.57;3.90;;;12.50;99.90;;;;;;4970160;28;20229;-70
2022/10/11 06:38:51;;;;;;;4.15;3.72;;;12.50;99.90;;;;;;4951572;28;20204;-71
2022/10/11 06:41:21;;;;;;;3.83;3.53;;;12.60;99.90;;;;;;4968755;28;20345;-71
2022/10/11 06:43:49;;;;;;;3.95;3.65;;;12.60;99.90;;;;;;4968998;28;20205;-70
2022/10/11 06:46:17;;;;;;;4.72;3.53;;;12.70;99.90;;;;;;4954450;28;20307;-70
2022/10/11 06:48:46;;;;;;;4.00;3.70;;;13.40;99.90;;;;;;4957383;28;20201;-70
2022/10/11 06:51:17;;;;;;;4.07;3.72;;;14.30;99.90;;;;;;4969793;28;20218;-70
2022/10/11 06:53:48;;;;;;;4.38;3.80;;;15.10;99.90;;;;;;4968862;28;20210;-70
2022/10/11 06:56:16;;;;;;;4.32;3.95;;;15.80;99.90;;;;;;4951200;28;20229;-70
2022/10/11 06:58:44;;;;;;;3.83;3.53;;;16.40;99.90;;;;;;4968735;28;20213;-70
2022/10/11 07:01:15;;;;;;;5.60;4.47;;;16.90;99.90;;;;;;4967311;28;20213;-70
2022/10/11 07:03:42;;;;;;;4.68;4.03;;;17.40;99.90;;;;;;4966592;28;21851;-71
2022/10/11 07:06:11;;;;;;;4.32;3.85;;;17.70;99.90;;;;;;4966393;28;20384;-70
2022/10/11 07:08:40;;;;;;;4.63;4.22;;;18.00;99.90;;;;;;4970556;28;20216;-71
2022/10/11 07:11:09;;;;;;;4.40;4.00;;;18.30;99.90;;;;;;4951673;28;20646;-71
2022/10/11 07:13:37;;;;;;;4.07;3.75;;;18.70;99.90;;;;;;4974046;28;20260;-71
2022/10/11 07:16:06;;;;;;;4.95;4.00;;;19.00;99.90;;;;;;4967227;28;20311;-71
2022/10/11 07:18:33;;;;;;;4.28;3.50;;;19.10;99.90;;;;;;4969213;28;20205;-71
2022/10/11 07:21:04;;;;;;;3.75;3.45;;;19.20;99.90;;;;;;4968959;28;20225;-71
2022/10/11 07:23:32;;;;;;;5.18;3.80;;;19.40;99.90;;;;;;4952048;28;20202;-71
2022/10/11 07:26:01;;;;;;;4.97;3.83;;;19.60;99.90;;;;;;4967276;28;20500;-70
2022/10/11 07:28:29;;;;;;;6.53;3.95;;;19.80;99.90;;;;;;4970585;28;20205;-70
2022/10/11 07:30:57;;;;;;;5.22;3.97;;;19.90;99.90;;;;;;4952695;28;20725;-72
2022/10/11 07:33:24;;;;;;;4.80;3.40;;;19.90;99.90;;;;;;4967465;28;20665;-72
2022/10/11 07:35:52;;;;;;;4.80;3.60;;;20.10;99.90;;;;;;4967444;28;20292;-70
2022/10/11 07:38:22;;;;;;;3.85;3.55;;;20.20;99.90;;;;;;4967824;28;20204;-71
2022/10/11 07:40:49;;;;;;;3.85;3.53;;;20.30;99.90;;;;;;4970676;28;20628;-71
2022/10/11 07:43:18;;;;;;;5.50;3.22;;;20.40;99.90;;;;;;4965993;28;20198;-71
2022/10/11 07:45:47;;;;;;;4.57;3.50;;;20.40;99.90;;;;;;4954797;28;20233;-71
2022/10/11 07:48:14;;;;;;;3.63;3.22;;;20.30;99.90;;;;;;4969002;28;20236;-71
2022/10/11 07:50:42;;;;;;;4.07;3.42;;;20.50;99.90;;;;;;4964681;28;20222;-71
2022/10/11 07:53:09;;;;;;;4.53;4.07;;;20.70;99.90;;;;;;4968182;28;21143;-71
2022/10/11 07:55:39;;;;;;;4.25;3.78;;;20.90;99.90;;;;;;4964914;28;20652;-71
2022/10/11 07:58:07;;;;;;;3.92;3.63;;;20.90;99.90;;;;;;4969515;28;20293;-73
2022/10/11 08:00:36;;;;;;;3.70;3.30;;;20.60;99.90;;;;;;4967032;28;20718;-71
2022/10/11 08:03:03;;;;;;;4.15;3.42;;;20.00;99.90;;;;;;4964666;28;20209;-71
2022/10/11 08:05:31;;;;;;;3.85;3.28;;;20.20;99.90;;;;;;4968091;28;20226;-71
2022/10/11 08:07:59;;;;;;;4.45;4.05;;;20.20;99.90;;;;;;4950503;28;20201;-71
2022/10/11 08:10:27;;;;;;;4.50;3.38;;;20.00;99.90;;;;;;4963857;28;20229;-71
2022/10/11 08:12:54;;;;;;;4.15;3.58;;;20.20;99.90;;;;;;4969269;28;20311;-71
2022/10/11 08:15:22;;;;;;;7.65;4.00;;;20.50;99.90;;;;;;4964881;28;20226;-70
2022/10/11 08:17:50;;;;;;;4.88;4.47;;;20.80;99.90;;;;;;4968470;28;20295;-71
2022/10/11 08:20:18;;;;;;;4.10;3.70;;;20.70;99.90;;;;;;4953726;28;20226;-71
2022/10/11 08:22:45;;;;;;;3.85;3.20;;;20.90;99.90;;;;;;4972244;28;20201;-71
2022/10/11 08:25:12;;;;;;;4.10;3.72;;;21.10;99.90;;;;;;4968395;28;20222;-71
2022/10/11 08:27:40;;;;;;;5.25;3.53;;;21.30;99.90;;;;;;4968876;28;20681;-71
2022/10/11 08:30:08;;;;;;;5.63;3.78;;;21.40;99.90;;;;;;4967213;28;20237;-72
2022/10/11 08:32:36;;;;;;;4.30;3.65;;;21.30;99.90;;;;;;4969703;28;20222;-70
2022/10/11 08:35:06;;;;;;;6.32;3.58;;;21.20;99.90;;;;;;4955959;28;20217;-70
2022/10/11 08:37:33;;;;;;;5.38;4.00;;;21.00;99.90;;;;;;4950901;28;20205;-72
2022/10/11 08:40:02;;;;;;;4.47;3.50;;;20.70;99.90;;;;;;4966871;28;20295;-72
2022/10/11 08:42:35;;;;;;;6.10;3.67;;;20.70;99.90;;;;;;4949776;28;20194;-71
2022/10/11 08:45:08;;;;;;;6.05;3.78;;;20.80;99.90;;;;;;4968358;28;20254;-71
2022/10/11 08:47:39;;;;;;;3.70;3.40;;;20.70;99.90;;;;;;4971306;28;20206;-71
2022/10/11 08:50:18;;;;;;;3.90;3.45;;;20.60;99.90;;;;;;4967588;28;20234;-71
2022/10/11 08:52:49;;;;;;;4.20;3.80;;;20.70;99.90;;;;;;4963895;28;20224;-72
2022/10/11 08:55:21;;;;;;;4.90;3.88;;;20.70;99.90;;;;;;4968154;28;20226;-70
2022/10/11 08:57:54;;;;;;;3.78;3.10;;;20.40;99.90;;;;;;4967645;28;20293;-70
2022/10/11 09:00:22;;;;;;;4.32;3.17;;;20.40;99.90;;;;;;4950595;28;20234;-70
2022/10/11 09:02:57;;;;;;;3.90;3.60;;;20.60;99.90;;;;;;4968004;28;20200;-71
2022/10/11 09:05:34;;;;;;;6.05;3.67;;;20.80;99.90;;;;;;4971464;28;20221;-71
2022/10/11 09:08:10;;;;;;;3.65;3.33;;;21.10;99.90;;;;;;4959336;28;20193;-71
2022/10/11 09:10:54;;;;;;;3.65;3.33;;;21.20;99.90;;;;;;4967693;28;20240;-72
2022/10/11 09:13:40;;;;;;;6.90;3.55;;;21.50;99.90;;;;;;4966154;28;20189;-72
2022/10/11 09:16:17;;;;;;;4.82;3.60;;;21.70;99.90;;;;;;4971490;28;20304;-72
2022/10/11 09:18:56;;;;;;;4.18;3.00;;;21.70;99.90;;;;;;4948679;28;20503;-72
2022/10/11 09:21:33;;;;;;;3.92;3.10;;;22.00;99.90;;;;;;4967067;28;20209;-72
2022/10/11 09:24:13;;;;;;;3.63;3.15;;;22.20;99.90;;;;;;4966934;28;20209;-72
2022/10/11 09:26:47;;;;;;;4.32;3.20;;;22.20;99.90;;;;;;4966737;28;20232;-72
2022/10/11 09:29:21;;;;;;;4.68;2.85;;;22.20;99.90;;;;;;4956344;28;20218;-72
2022/10/11 09:31:52;;;;;;;3.78;2.63;;;22.30;99.90;;;;;;4964500;28;20225;-72
2022/10/11 09:34:22;;;;;;;3.78;3.45;;;22.30;99.90;;;;;;4954221;28;20198;-71
2022/10/11 09:36:58;;;;;;;5.40;3.55;;;22.40;99.90;;;;;;4968810;28;20225;-71
2022/10/11 09:39:32;;;;;;;5.43;3.35;;;22.40;99.90;;;;;;4968287;28;20234;-71
2022/10/11 09:42:01;;;;;;;4.57;3.47;;;22.30;99.90;;;;;;4969570;28;20682;-71
2022/10/11 09:44:32;;;;;;;4.10;2.80;;;22.30;99.90;;;;;;4953670;28;20193;-72
2022/10/11 09:46:59;;;;;;;4.13;3.55;;;22.40;99.90;;;;;;4957921;28;20755;-71
2022/10/11 09:49:32;;;;;;;3.17;2.90;;;22.70;99.90;;;;;;4968383;28;20213;-71
2022/10/11 09:52:04;;;;;;;4.35;3.70;;;22.80;99.90;;;;;;4951826;28;20973;-71
2022/10/11 09:54:40;;;;;;;3.45;3.15;;;22.80;99.90;;;;;;4967897;28;20202;-71
2022/10/11 09:57:19;;;;;;;3.45;2.95;;;22.90;99.90;;;;;;4953427;28;20201;-71
2022/10/11 09:59:59;;;;;;;6.72;3.35;;;23.00;99.90;;;;;;4969247;28;20264;-71
2022/10/11 10:02:27;;;;;;;3.88;2.85;;;23.10;99.90;;;;;;4967788;28;20260;-71
2022/10/11 10:05:14;;;;;;;4.60;2.95;;;23.10;99.90;;;;;;4954479;28;20889;-71
2022/10/11 10:08:01;;;;;;;6.13;3.20;;;22.80;99.90;;;;;;4968288;28;20197;-71
2022/10/11 10:10:34;;;;;;;3.30;3.00;;;22.70;99.90;;;;;;4969353;28;20221;-71
2022/10/11 10:13:04;;;;;;;5.30;3.55;;;22.70;99.90;;;;;;4972342;28;20450;-71
2022/10/11 10:15:33;;;;;;;4.40;3.08;;;22.50;99.90;;;;;;4967810;28;20228;-71
2022/10/11 10:18:01;;;;;;;3.05;2.75;;;22.20;99.90;;;;;;4966200;28;20208;-71
2022/10/11 10:20:31;;;;;;;3.50;3.20;;;22.30;99.90;;;;;;4966885;28;20615;-71
2022/10/11 10:23:07;;;;;;;5.15;3.03;;;22.20;99.90;;;;;;4967398;28;20207;-71
2022/10/11 10:25:38;;;;;;;2.90;2.70;;;22.30;99.90;;;;;;4969281;28;20225;-71
2022/10/11 10:28:19;;;;;;;3.55;3.10;;;22.50;99.90;;;;;;4969550;28;20252;-71
2022/10/11 10:30:53;;;;;;;3.47;3.15;;;22.70;99.90;;;;;;4965636;28;20224;-71
2022/10/11 10:33:23;;;;;;;3.50;2.78;;;22.90;99.90;;;;;;4966718;28;20324;-71
2022/10/11 10:35:55;;;;;;;3.58;2.85;;;23.20;99.90;;;;;;4934611;28;20249;-71
2022/10/11 10:38:29;;;;;;;3.33;3.03;;;23.40;99.90;;;;;;4949954;28;20557;-71
2022/10/11 10:40:58;;;;;;;3.05;2.78;;;23.20;99.90;;;;;;4965516;28;20221;-71
2022/10/11 10:43:29;;;;;;;3.30;2.70;;;23.00;99.90;;;;;;4967078;28;20193;-72
2022/10/11 10:46:18;;;;;;;2.97;2.33;;;22.80;99.90;;;;;;4969179;28;20324;-72
2022/10/11 10:48:52;;;;;;;3.10;2.50;;;23.20;99.90;;;;;;4965057;28;20732;-72
2022/10/11 10:51:30;;;;;;;2.92;2.72;;;23.20;99.90;;;;;;4963483;28;20217;-72
2022/10/11 10:54:10;;;;;;;2.85;2.47;;;23.00;99.90;;;;;;4963902;28;20677;-70
2022/10/11 10:56:45;;;;;;;2.72;2.50;;;22.90;99.90;;;;;;4965365;28;20248;-70
2022/10/11 10:59:31;;;;;;;3.13;2.60;;;23.00;99.90;;;;;;4965121;28;20220;-68
2022/10/11 11:02:03;;;;;;;2.63;2.42;;;23.20;99.90;;;;;;4963707;28;20221;-73
2022/10/11 11:04:33;;;;;;;4.28;2.88;;;23.20;99.90;;;;;;4964320;28;20204;-73
2022/10/11 11:07:08;;;;;;;3.10;2.45;;;22.90;99.90;;;;;;4970335;28;20212;-73
2022/10/11 11:09:48;;;;;;;4.28;2.63;;;23.00;99.90;;;;;;4968705;28;20279;-73
2022/10/11 11:12:27;;;;;;;3.63;2.45;;;23.20;99.90;;;;;;4966002;28;20217;-74
2022/10/11 11:15:02;;;;;;;3.58;2.50;;;23.40;99.90;;;;;;4954558;28;20229;-73
2022/10/11 11:17:42;;;;;;;4.00;2.38;;;23.40;99.90;;;;;;4967347;28;20193;-74
2022/10/11 11:20:34;;;;;;;3.15;2.25;;;23.40;99.90;;;;;;4965047;28;20237;-74
2022/10/11 11:23:12;;;;;;;4.97;2.45;;;23.40;99.90;;;;;;4964174;28;20232;-74
2022/10/11 11:25:48;;;;;;;3.28;2.20;;;23.40;99.90;;;;;;4966624;28;20779;-73
2022/10/11 11:28:38;;;;;;;2.53;2.33;;;23.20;99.90;;;;;;4966042;28;20201;-72
2022/10/11 11:31:17;;;;;;;2.60;2.40;;;23.00;99.90;;;;;;4966533;28;20226;-73
2022/10/11 11:33:55;;;;;;;2.70;2.50;;;23.20;99.90;;;;;;4966424;28;20538;-75
2022/10/11 11:36:32;;;;;;;5.75;2.70;;;23.30;99.90;;;;;;4954401;28;20233;-74
2022/10/11 11:39:04;;;;;;;2.88;2.47;;;23.30;99.90;;;;;;4965731;28;20197;-74
2022/10/11 11:41:36;;;;;;;2.70;2.22;;;23.30;99.90;;;;;;4952028;28;20502;-73
2022/10/11 11:44:11;;;;;;;3.05;2.47;;;23.20;99.90;;;;;;4965961;28;20775;-74
2022/10/11 11:46:43;;;;;;;3.75;2.45;;;23.40;99.90;;;;;;4969997;28;20230;-73
2022/10/11 11:49:17;;;;;;;2.20;2.00;;;23.40;99.90;;;;;;4973035;28;20542;-73
2022/10/11 11:51:46;;;;;;;2.85;2.30;;;23.40;99.90;;;;;;4963171;28;20286;-74
2022/10/11 11:54:27;;;;;;;2.70;2.47;;;23.60;99.90;;;;;;4973043;28;20210;-74
2022/10/11 11:57:01;;;;;;;2.80;2.17;;;23.80;99.90;;;;;;4955597;28;20225;-73
2022/10/11 11:59:37;;;;;;;2.33;2.13;;;23.80;99.90;;;;;;4954569;28;20224;-73
2022/10/11 12:02:31;;;;;;;3.63;1.90;;;23.70;99.90;;;;;;4968519;28;20553;-73
2022/10/11 12:04:59;;;;;;;2.40;2.20;;;23.70;99.90;;;;;;4970032;28;20225;-72
2022/10/11 12:07:28;;;;;;;2.65;2.38;;;23.60;99.90;;;;;;4971634;28;20224;-72
2022/10/11 12:10:16;;;;;;;2.38;2.17;;;23.70;99.90;;;;;;4974772;28;20260;-73
2022/10/11 12:12:46;;;;;;;3.35;2.10;;;23.80;99.90;;;;;;4970925;28;20214;-73
2022/10/11 12:15:21;;;;;;;2.40;1.90;;;24.00;99.90;;;;;;4959982;28;20218;-72
2022/10/11 12:18:14;;;;;;;2.25;2.00;;;24.30;99.90;;;;;;4955337;28;20200;-73
2022/10/11 12:20:43;;;;;;;2.65;2.00;;;24.50;99.90;;;;;;4970392;28;20237;-72
2022/10/11 12:23:44;;;;;;;2.80;2.35;;;24.50;99.90;;;;;;4955313;28;20268;-72
2022/10/11 12:26:39;;;;;;;2.40;2.20;;;24.20;99.90;;;;;;4969268;28;20236;-73
2022/10/11 12:29:41;;;;;;;2.17;2.00;;;24.00;99.90;;;;;;4968338;28;20226;-73
2022/10/11 12:32:50;;;;;;;8.02;2.58;;;23.80;99.90;;;;;;4968433;28;20244;-73
2022/10/11 12:35:52;;;;;;;3.17;2.20;;;23.40;99.90;;;;;;4972803;28;20237;-73
2022/10/11 12:38:23;;;;;;;1.95;1.85;;;23.10;99.90;;;;;;4951434;28;20631;-73
2022/10/11 12:40:53;;;;;;;2.25;2.05;;;22.90;99.90;;;;;;4973135;28;20222;-74
2022/10/11 12:43:36;;;;;;;2.80;1.98;;;23.10;99.90;;;;;;4970206;28;20197;-73
2022/10/11 12:46:44;;;;;;;3.97;2.40;;;23.00;99.90;;;;;;4966424;28;20226;-73
2022/10/11 12:49:41;;;;;;;1.98;1.85;;;23.30;99.90;;;;;;4967351;28;20213;-73
2022/10/11 12:52:24;;;;;;;2.83;2.08;;;23.20;99.90;;;;;;4968508;28;20237;-73
2022/10/11 12:55:13;;;;;;;3.88;2.30;;;22.90;99.90;;;;;;4957211;28;20223;-73
2022/10/11 12:58:19;;;;;;;3.55;1.88;;;22.50;99.90;;;;;;4977169;28;20209;-73
2022/10/11 13:01:22;;;;;;;2.15;1.90;;;22.20;99.90;;;;;;4956021;28;20225;-73
2022/10/11 13:04:00;;;;;;;2.28;1.77;;;21.90;99.90;;;;;;4963725;28;20197;-73
2022/10/11 13:06:32;;;;;;;2.05;1.80;;;21.80;99.90;;;;;;4972090;28;20401;-73
2022/10/11 13:09:04;;;;;;;3.25;1.77;;;21.80;99.90;;;;;;4953693;28;20209;-73
2022/10/11 13:11:35;;;;;;;2.53;1.60;;;21.90;99.90;;;;;;4955571;28;20217;-75
2022/10/11 13:14:08;;;;;;;1.73;1.60;;;21.90;99.90;;;;;;4966040;28;20230;-75